Time;durP1;ratioP1;P1;durP2;ratioP2;P2;SDS_P1;SDS_P2;PMS_P1;PMS_P2;Temp;Humidity;BMP_temperature;BMP_pressure;BME280_temperature;BME280_humidity;BME280_pressure;Samples;Min_cycle;Max_cycle;Signal;HPM_P1;HPM_P2
2024/04/18 00:01:35;;;;;;;6.45;2.67;;;0.40;100.00;;;;;;5189488;27;20024;-67
2024/04/18 00:04:02;;;;;;;7.88;3.53;;;0.50;100.00;;;;;;5191325;27;20026;-66
2024/04/18 00:06:29;;;;;;;12.25;3.88;;;0.50;100.00;;;;;;5187620;27;20019;-67
2024/04/18 00:08:56;;;;;;;10.80;3.72;;;0.50;100.00;;;;;;5185259;27;20020;-66
2024/04/18 00:11:23;;;;;;;8.48;3.85;;;0.50;100.00;;;;;;5190994;27;20007;-66
2024/04/18 00:13:50;;;;;;;11.27;4.95;;;0.40;100.00;;;;;;5195530;27;20018;-67
2024/04/18 00:16:17;;;;;;;11.27;4.40;;;0.40;100.00;;;;;;5195327;27;20004;-66
2024/04/18 00:18:44;;;;;;;7.95;4.38;;;0.40;100.00;;;;;;5191661;27;20476;-67
2024/04/18 00:21:11;;;;;;;11.65;4.32;;;0.40;100.00;;;;;;5186722;27;20702;-66
2024/04/18 00:23:37;;;;;;;7.25;3.72;;;0.40;100.00;;;;;;5183553;27;20015;-66
2024/04/18 00:26:04;;;;;;;7.43;3.80;;;0.50;100.00;;;;;;5190446;27;20337;-67
2024/04/18 00:28:31;;;;;;;7.80;3.92;;;0.50;100.00;;;;;;5184848;27;20022;-66
2024/04/18 00:30:58;;;;;;;5.75;3.10;;;0.40;100.00;;;;;;5192482;27;20192;-66
2024/04/18 00:33:25;;;;;;;9.00;3.55;;;0.40;100.00;;;;;;5196541;27;21279;-66
2024/04/18 00:35:52;;;;;;;5.63;3.63;;;0.30;100.00;;;;;;5196559;27;20020;-66
2024/04/18 00:38:19;;;;;;;8.07;3.60;;;0.30;100.00;;;;;;5188369;27;20028;-66
2024/04/18 00:40:46;;;;;;;6.93;3.70;;;0.30;100.00;;;;;;5202484;27;20004;-66
2024/04/18 00:43:13;;;;;;;10.68;4.00;;;0.20;100.00;;;;;;5192690;27;20018;-66
2024/04/18 00:45:41;;;;;;;6.10;3.58;;;0.20;100.00;;;;;;5184426;27;20008;-66
2024/04/18 00:48:08;;;;;;;9.00;3.85;;;0.10;100.00;;;;;;5185501;27;20020;-66
2024/04/18 00:50:35;;;;;;;7.75;3.53;;;0.10;100.00;;;;;;5192863;27;20011;-67
2024/04/18 00:53:02;;;;;;;14.23;3.75;;;0.10;100.00;;;;;;5190830;27;20004;-66
2024/04/18 00:55:30;;;;;;;15.00;4.35;;;0.20;100.00;;;;;;5191832;27;20008;-67
2024/04/18 00:57:58;;;;;;;10.82;4.40;;;0.20;100.00;;;;;;5171946;27;20008;-66
2024/04/18 01:00:25;;;;;;;7.50;4.55;;;0.30;100.00;;;;;;5187530;27;20107;-66
2024/04/18 01:02:52;;;;;;;7.70;3.85;;;0.20;100.00;;;;;;5186567;27;20786;-67
2024/04/18 01:05:19;;;;;;;7.50;3.95;;;0.10;100.00;;;;;;5188487;27;20019;-76
2024/04/18 01:07:46;;;;;;;13.15;4.03;;;0.20;100.00;;;;;;5194204;27;20023;-76
2024/04/18 01:10:12;;;;;;;8.15;3.70;;;0.20;100.00;;;;;;5183968;27;20008;-75
2024/04/18 01:12:39;;;;;;;7.05;3.70;;;0.00;100.00;;;;;;5190926;27;20103;-76
2024/04/18 01:15:06;;;;;;;6.65;3.60;;;0.10;100.00;;;;;;5223057;27;20008;-75
2024/04/18 01:17:33;;;;;;;8.48;3.90;;;0.10;100.00;;;;;;5186497;27;20016;-76
2024/04/18 01:20:00;;;;;;;6.28;3.17;;;0.00;100.00;;;;;;5191637;27;20413;-76
2024/04/18 01:22:27;;;;;;;6.82;3.25;;;0.00;100.00;;;;;;5192998;27;20015;-76
2024/04/18 01:24:54;;;;;;;8.43;3.90;;;0.00;100.00;;;;;;5218787;27;20497;-76
2024/04/18 01:27:21;;;;;;;11.75;3.85;;;0.00;100.00;;;;;;5199697;27;20520;-76
2024/04/18 01:29:48;;;;;;;13.07;5.22;;;0.00;100.00;;;;;;5190460;27;20664;-76
2024/04/18 01:32:15;;;;;;;15.45;3.95;;;-0.10;100.00;;;;;;5183209;27;20330;-75
2024/04/18 01:34:41;;;;;;;13.35;4.38;;;-0.10;100.00;;;;;;5194107;27;20031;-76
2024/04/18 01:40:49;;;;;;;9.10;3.92;;;-0.10;100.00;;;;;;5213963;27;20113;-75
2024/04/18 01:43:16;;;;;;;11.20;4.53;;;-0.20;100.00;;;;;;5227431;27;20007;-75
2024/04/18 01:45:43;;;;;;;7.65;3.70;;;-0.30;100.00;;;;;;5213933;27;20003;-75
2024/04/18 01:48:10;;;;;;;7.93;4.25;;;-0.30;100.00;;;;;;5229997;27;20017;-76
2024/04/18 01:50:37;;;;;;;10.70;3.83;;;-0.40;100.00;;;;;;5229259;27;20094;-76
2024/04/18 01:53:04;;;;;;;8.90;3.88;;;-0.40;100.00;;;;;;5228631;27;19999;-76
2024/04/18 01:55:31;;;;;;;9.07;3.65;;;-0.40;100.00;;;;;;5237229;27;20007;-76
2024/04/18 01:57:58;;;;;;;18.92;4.47;;;-0.40;100.00;;;;;;5230558;27;20978;-76
2024/04/18 02:00:25;;;;;;;12.10;3.65;;;-0.40;100.00;;;;;;5279508;22;20025;-76
2024/04/18 02:02:52;;;;;;;12.27;4.18;;;-0.40;100.00;;;;;;5303972;26;20344;-76
2024/04/18 02:08:02;;;;;;;7.40;3.40;;;-0.40;100.00;;;;;;5282147;27;20002;-66
2024/04/18 02:10:29;;;;;;;8.73;3.90;;;-0.40;100.00;;;;;;5271204;27;20406;-66
2024/04/18 02:12:56;;;;;;;8.90;3.70;;;-0.40;100.00;;;;;;5280461;27;20438;-67
2024/04/18 02:15:23;;;;;;;8.40;3.92;;;-0.50;100.00;;;;;;5282208;27;20082;-66
2024/04/18 02:17:51;;;;;;;10.55;3.88;;;-0.50;100.00;;;;;;5285883;27;20405;-66
2024/04/18 02:20:19;;;;;;;10.95;4.80;;;-0.60;100.00;;;;;;5290459;27;20021;-66
2024/04/18 02:22:46;;;;;;;7.40;4.38;;;-0.60;100.00;;;;;;5278551;27;20006;-66
2024/04/18 02:25:13;;;;;;;8.02;4.00;;;-0.70;100.00;;;;;;5270122;27;20881;-66
2024/04/18 02:27:41;;;;;;;10.38;4.05;;;-0.80;100.00;;;;;;5296528;27;20010;-66
2024/04/18 02:30:10;;;;;;;12.05;4.38;;;-0.80;100.00;;;;;;5293791;27;20021;-66
2024/04/18 02:32:38;;;;;;;8.88;4.38;;;-0.80;100.00;;;;;;5281335;27;20076;-66
2024/04/18 02:35:05;;;;;;;7.85;3.80;;;-0.90;100.00;;;;;;5253634;27;20464;-66
2024/04/18 02:37:32;;;;;;;10.80;4.78;;;-0.90;100.00;;;;;;5279774;27;20013;-66
2024/04/18 02:39:59;;;;;;;10.60;4.07;;;-0.80;100.00;;;;;;5295568;26;20025;-66
2024/04/18 02:42:26;;;;;;;10.73;4.40;;;-0.90;100.00;;;;;;5280022;27;20010;-66
2024/04/18 02:44:53;;;;;;;10.63;4.75;;;-0.90;100.00;;;;;;5292438;27;20010;-66
2024/04/18 02:47:20;;;;;;;16.73;4.57;;;-0.90;100.00;;;;;;5293639;27;20005;-66
2024/04/18 02:49:47;;;;;;;11.77;5.10;;;-0.90;100.00;;;;;;5279906;27;20803;-66
2024/04/18 02:52:13;;;;;;;10.40;4.00;;;-0.80;100.00;;;;;;5277865;27;20006;-75
2024/04/18 02:54:40;;;;;;;23.73;5.95;;;-0.80;100.00;;;;;;5292090;27;20006;-75
2024/04/18 02:57:07;;;;;;;62.63;6.22;;;-0.70;100.00;;;;;;5296287;27;20014;-75
2024/04/18 02:59:34;;;;;;;38.55;5.68;;;-0.70;100.00;;;;;;5295536;27;20012;-75
2024/04/18 03:02:03;;;;;;;86.35;7.97;;;-0.60;100.00;;;;;;5288837;27;20458;-75
2024/04/18 03:04:31;;;;;;;239.30;13.90;;;-0.50;100.00;;;;;;5264130;27;20015;-75
2024/04/18 03:06:59;;;;;;;101.78;8.07;;;-0.50;100.00;;;;;;5262475;27;20063;-75
2024/04/18 03:09:26;;;;;;;46.47;6.80;;;-0.40;100.00;;;;;;5283369;27;20018;-75
2024/04/18 03:11:56;;;;;;;233.60;11.63;;;-0.40;100.00;;;;;;5282660;27;20023;-75
2024/04/18 03:14:23;;;;;;;71.47;7.30;;;-0.50;100.00;;;;;;5282529;27;20011;-75
2024/04/18 03:16:50;;;;;;;53.90;6.15;;;-0.40;100.00;;;;;;5290516;27;20017;-75
2024/04/18 03:19:18;;;;;;;14.25;5.57;;;-0.40;100.00;;;;;;5262524;27;20843;-75
2024/04/18 03:21:48;;;;;;;11.20;5.30;;;-0.40;100.00;;;;;;5277699;26;20053;-75
2024/04/18 03:24:23;;;;;;;13.93;5.68;;;-0.30;100.00;;;;;;5281830;27;20006;-75
2024/04/18 03:26:51;;;;;;;;;;;-0.40;100.00;;;;;;5286911;27;20006;-75
2024/04/18 03:29:18;;;;;;;50.05;5.25;;;-0.40;100.00;;;;;;5259981;27;19926;-75
2024/04/18 03:31:48;;;;;;;16.60;4.78;;;-0.40;100.00;;;;;;5280286;27;20447;-75
2024/04/18 03:34:15;;;;;;;12.45;5.35;;;-0.40;100.00;;;;;;5285827;27;20491;-75
2024/04/18 03:37:00;;;;;;;24.02;6.55;;;-0.50;100.00;;;;;;5281279;27;20005;-74
2024/04/18 03:39:30;;;;;;;33.70;5.75;;;-0.60;100.00;;;;;;5286750;27;20016;-75
2024/04/18 03:41:57;;;;;;;22.50;5.82;;;-0.60;100.00;;;;;;5287941;27;20719;-75
2024/04/18 03:44:24;;;;;;;15.52;6.40;;;-0.70;100.00;;;;;;5277351;27;20098;-74
2024/04/18 03:46:51;;;;;;;14.85;5.18;;;-0.60;100.00;;;;;;5280823;27;20028;-76
2024/04/18 03:49:18;;;;;;;27.70;5.80;;;-0.70;100.00;;;;;;5289257;27;20021;-75
2024/04/18 03:51:44;;;;;;;12.35;4.72;;;-0.80;100.00;;;;;;5276007;27;20001;-75
2024/04/18 03:54:11;;;;;;;16.75;4.75;;;-0.80;100.00;;;;;;5290388;27;20676;-75
2024/04/18 03:56:38;;;;;;;16.05;5.43;;;-0.80;100.00;;;;;;5269658;27;20021;-75
2024/04/18 03:59:05;;;;;;;24.60;5.20;;;-0.80;100.00;;;;;;5283847;27;20006;-74
2024/04/18 04:01:34;;;;;;;12.55;4.93;;;-0.80;100.00;;;;;;5281615;27;20001;-75
2024/04/18 04:04:02;;;;;;;13.35;5.15;;;-0.80;100.00;;;;;;5284472;27;20012;-75
2024/04/18 04:06:29;;;;;;;10.93;4.55;;;-0.80;100.00;;;;;;5246507;27;20006;-75
2024/04/18 04:08:59;;;;;;;15.40;4.80;;;-0.80;100.00;;;;;;5290788;27;20394;-75
2024/04/18 04:11:25;;;;;;;11.60;5.03;;;-0.80;100.00;;;;;;5251434;27;20006;-74
2024/04/18 04:13:52;;;;;;;10.13;4.82;;;-0.80;100.00;;;;;;5284498;26;20551;-75
2024/04/18 04:16:23;;;;;;;13.07;4.43;;;-0.80;100.00;;;;;;5282961;27;20010;-75
2024/04/18 04:18:54;;;;;;;15.07;5.25;;;-0.80;100.00;;;;;;5273943;27;20011;-75
2024/04/18 04:21:22;;;;;;;20.77;5.63;;;-0.90;100.00;;;;;;5267731;27;20009;-75
2024/04/18 04:23:49;;;;;;;14.30;5.53;;;-0.90;100.00;;;;;;5269993;27;20017;-74
2024/04/18 04:26:16;;;;;;;27.50;5.57;;;-0.90;100.00;;;;;;5277794;27;20001;-75
2024/04/18 04:28:43;;;;;;;15.23;4.85;;;-1.00;100.00;;;;;;5257214;27;20549;-74
2024/04/18 04:31:10;;;;;;;13.13;5.78;;;-1.00;100.00;;;;;;5281476;27;20813;-74
2024/04/18 04:33:37;;;;;;;11.38;4.63;;;-1.00;100.00;;;;;;5287852;27;20078;-75
2024/04/18 04:36:04;;;;;;;11.27;5.22;;;-0.90;100.00;;;;;;5273743;27;20037;-75
2024/04/18 04:38:31;;;;;;;14.18;5.55;;;-0.90;100.00;;;;;;5287420;27;20016;-74
2024/04/18 04:40:58;;;;;;;14.85;5.35;;;-0.90;100.00;;;;;;5279627;27;20013;-74
2024/04/18 04:43:25;;;;;;;20.15;5.97;;;-0.90;100.00;;;;;;5286885;27;20031;-75
2024/04/18 04:45:54;;;;;;;22.90;5.82;;;-0.90;100.00;;;;;;5287030;27;19998;-75
2024/04/18 04:48:21;;;;;;;11.60;5.13;;;-0.80;100.00;;;;;;5279374;21;20083;-74
2024/04/18 04:50:59;;;;;;;17.63;5.50;;;-0.70;100.00;;;;;;5253214;27;20005;-74
2024/04/18 04:53:26;;;;;;;15.60;6.72;;;-0.70;100.00;;;;;;5225853;27;20419;-74
2024/04/18 04:55:54;;;;;;;15.23;6.65;;;-0.70;100.00;;;;;;5250168;27;20006;-74
2024/04/18 04:58:21;;;;;;;13.75;6.30;;;-0.50;100.00;;;;;;5247710;27;20014;-77
2024/04/18 05:00:49;;;;;;;14.35;5.80;;;-0.50;100.00;;;;;;5259783;27;20007;-77
2024/04/18 05:03:16;;;;;;;17.13;5.70;;;-0.50;100.00;;;;;;5250586;27;20022;-75
2024/04/18 05:09:01;;;;;;;16.15;5.30;;;-0.40;100.00;;;;;;5254901;27;20026;-74
2024/04/18 05:11:29;;;;;;;14.75;6.43;;;-0.40;100.00;;;;;;5261031;27;20025;-74
2024/04/18 05:13:56;;;;;;;10.30;5.47;;;-0.40;100.00;;;;;;5218721;27;20017;-75
2024/04/18 05:16:23;;;;;;;14.73;5.80;;;-0.40;100.00;;;;;;5254924;27;20007;-73
2024/04/18 05:18:52;;;;;;;13.07;6.28;;;-0.40;100.00;;;;;;5251759;27;20586;-75
2024/04/18 05:21:19;;;;;;;14.23;5.90;;;-0.30;100.00;;;;;;5244701;27;20006;-76
2024/04/18 05:23:46;;;;;;;15.85;6.57;;;-0.30;100.00;;;;;;5263165;27;20014;-74
2024/04/18 05:26:12;;;;;;;23.48;5.13;;;-0.20;100.00;;;;;;5253884;27;20006;-73
2024/04/18 05:31:00;;;;;;;15.63;6.40;;;-0.10;100.00;;;;;;5252854;27;20007;-74
2024/04/18 05:31:29;;;;;;;15.07;7.07;;;-0.10;100.00;;;;;;5236506;27;20548;-73
2024/04/18 05:33:56;;;;;;;20.65;6.72;;;0.00;100.00;;;;;;5222542;27;20017;-73
2024/04/18 05:36:23;;;;;;;15.52;7.57;;;0.00;100.00;;;;;;5252015;27;20018;-73
2024/04/18 05:38:50;;;;;;;13.57;7.07;;;0.10;100.00;;;;;;5255249;27;20618;-72
2024/04/18 05:41:17;;;;;;;17.42;7.70;;;0.20;100.00;;;;;;5240547;27;20003;-72
2024/04/18 05:43:44;;;;;;;19.17;7.63;;;0.30;100.00;;;;;;5257585;27;20009;-72
2024/04/18 05:46:11;;;;;;;21.88;7.03;;;0.40;100.00;;;;;;5263624;27;20002;-72
2024/04/18 05:48:38;;;;;;;21.60;6.95;;;0.50;100.00;;;;;;5240703;27;20021;-71
2024/04/18 05:51:08;;;;;;;24.85;8.30;;;0.60;100.00;;;;;;5237393;27;20412;-71
2024/04/18 05:53:37;;;;;;;20.50;8.45;;;0.70;100.00;;;;;;5233362;27;20097;-72
2024/04/18 05:56:05;;;;;;;21.35;7.50;;;0.80;100.00;;;;;;5231465;27;20127;-71
2024/04/18 05:58:33;;;;;;;20.23;7.63;;;0.90;100.00;;;;;;5238350;27;20021;-71
2024/04/18 06:00:59;;;;;;;17.90;7.95;;;1.00;100.00;;;;;;5260542;27;20340;-71
2024/04/18 06:06:33;;;;;;;16.98;7.80;;;1.30;100.00;;;;;;5263417;27;20010;-66
2024/04/18 06:09:00;;;;;;;20.10;8.43;;;1.40;100.00;;;;;;5259216;27;20011;-66
2024/04/18 06:11:41;;;;;;;19.63;7.50;;;1.60;100.00;;;;;;5262782;27;19998;-66
2024/04/18 06:14:09;;;;;;;21.17;7.50;;;1.70;100.00;;;;;;5259830;27;20015;-66
2024/04/18 06:16:37;;;;;;;20.35;7.63;;;1.80;100.00;;;;;;5252771;27;20006;-66
2024/04/18 06:19:04;;;;;;;16.80;7.05;;;2.00;100.00;;;;;;5256785;27;20022;-66
2024/04/18 06:21:31;;;;;;;19.55;7.18;;;2.40;100.00;;;;;;5262476;27;20033;-66
2024/04/18 06:23:57;;;;;;;24.10;7.90;;;2.80;100.00;;;;;;5248083;27;20007;-66
2024/04/18 06:26:25;;;;;;;15.07;7.20;;;3.40;100.00;;;;;;5233093;27;20017;-66
2024/04/18 06:28:51;;;;;;;22.40;7.60;;;3.90;100.00;;;;;;5263549;27;20692;-66
2024/04/18 06:31:18;;;;;;;18.70;7.75;;;4.10;100.00;;;;;;5254042;27;20006;-66
2024/04/18 06:33:45;;;;;;;14.35;5.85;;;4.40;100.00;;;;;;5266663;27;20011;-67
2024/04/18 06:36:13;;;;;;;14.77;7.10;;;5.00;100.00;;;;;;5250083;27;21036;-67
2024/04/18 06:38:40;;;;;;;12.98;6.63;;;5.80;100.00;;;;;;5249351;27;20018;-67
2024/04/18 06:41:07;;;;;;;16.35;11.77;;;6.30;100.00;;;;;;5259480;27;20041;-67
2024/04/18 06:43:33;;;;;;;10.40;5.00;;;6.60;100.00;;;;;;5242379;27;20836;-66
2024/04/18 06:46:00;;;;;;;11.38;4.28;;;7.50;100.00;;;;;;5272085;27;20033;-66
2024/04/18 06:48:27;;;;;;;8.18;4.25;;;8.10;100.00;;;;;;5225947;27;20017;-66
2024/04/18 06:50:55;;;;;;;7.68;3.97;;;8.40;100.00;;;;;;5260032;27;20042;-66
2024/04/18 06:53:22;;;;;;;12.05;3.75;;;8.40;100.00;;;;;;5246599;27;20085;-67
2024/04/18 06:55:49;;;;;;;7.53;2.65;;;8.50;100.00;;;;;;5227494;27;20022;-66
2024/04/18 06:58:16;;;;;;;4.07;2.55;;;8.20;100.00;;;;;;5227564;27;20029;-67
2024/04/18 07:00:43;;;;;;;10.38;2.88;;;8.10;100.00;;;;;;5247767;27;20770;-67
2024/04/18 07:03:13;;;;;;;7.03;2.58;;;8.10;100.00;;;;;;5262019;27;20089;-66
2024/04/18 07:05:41;;;;;;;6.63;2.65;;;8.00;100.00;;;;;;5263112;27;20018;-67
2024/04/18 07:08:08;;;;;;;6.55;2.20;;;8.20;100.00;;;;;;5261582;27;20017;-67
2024/04/18 07:10:35;;;;;;;4.75;1.88;;;8.40;100.00;;;;;;5225814;27;20344;-67
2024/04/18 07:13:03;;;;;;;3.30;1.88;;;8.50;100.00;;;;;;5256006;27;20033;-67
2024/04/18 07:15:30;;;;;;;3.22;2.00;;;8.90;100.00;;;;;;5262391;27;20106;-67
2024/04/18 07:17:57;;;;;;;7.63;2.47;;;9.20;100.00;;;;;;5256448;27;20794;-67
2024/04/18 07:20:25;;;;;;;4.50;2.55;;;9.50;100.00;;;;;;5230137;27;20026;-67
2024/04/18 07:22:53;;;;;;;4.70;2.35;;;9.80;100.00;;;;;;5235716;27;20013;-67
2024/04/18 07:25:20;;;;;;;5.78;2.67;;;10.10;100.00;;;;;;5252139;27;20889;-67
2024/04/18 07:27:48;;;;;;;3.88;2.28;;;10.50;100.00;;;;;;5267367;27;20109;-67
2024/04/18 07:30:15;;;;;;;4.13;1.85;;;10.80;100.00;;;;;;5263695;27;20002;-67
2024/04/18 07:32:43;;;;;;;5.18;1.65;;;11.40;100.00;;;;;;5258054;27;20034;-67
2024/04/18 07:35:10;;;;;;;2.78;1.73;;;11.30;100.00;;;;;;5264281;27;20007;-67
2024/04/18 07:37:37;;;;;;;10.60;1.90;;;11.10;100.00;;;;;;5251259;27;20006;-67
2024/04/18 07:40:18;;;;;;;5.95;1.90;;;10.80;100.00;;;;;;5256007;27;20018;-67
2024/04/18 07:42:45;;;;;;;5.93;1.90;;;10.80;100.00;;;;;;5255986;27;20010;-67
2024/04/18 07:45:12;;;;;;;4.40;2.20;;;11.10;100.00;;;;;;5254424;27;20079;-67
2024/04/18 07:47:39;;;;;;;10.57;1.63;;;11.10;100.00;;;;;;5245548;27;20006;-67
2024/04/18 07:50:06;;;;;;;2.17;1.50;;;11.30;100.00;;;;;;5272862;27;20037;-67
2024/04/18 07:52:33;;;;;;;3.05;1.40;;;11.30;100.00;;;;;;5237930;27;20003;-67
2024/04/18 07:55:00;;;;;;;2.25;1.33;;;11.30;100.00;;;;;;5215697;27;20008;-67
2024/04/18 07:57:31;;;;;;;6.25;2.03;;;11.20;100.00;;;;;;5253647;27;20012;-67
2024/04/18 07:59:59;;;;;;;4.07;1.58;;;11.80;100.00;;;;;;5254637;27;20422;-67
2024/04/18 08:02:27;;;;;;;6.75;1.60;;;11.50;100.00;;;;;;5258615;27;20007;-67
2024/04/18 08:04:57;;;;;;;4.10;1.73;;;11.70;100.00;;;;;;5256065;27;20033;-67
2024/04/18 08:07:29;;;;;;;5.13;1.92;;;11.80;100.00;;;;;;5263272;27;20403;-67
2024/04/18 08:10:00;;;;;;;2.67;2.00;;;11.80;100.00;;;;;;5249708;27;20022;-67
2024/04/18 08:12:34;;;;;;;3.90;2.33;;;12.20;100.00;;;;;;5247632;27;20017;-67
2024/04/18 08:15:08;;;;;;;5.00;1.80;;;12.10;100.00;;;;;;5251197;27;20002;-67
2024/04/18 08:17:43;;;;;;;6.10;2.25;;;12.00;100.00;;;;;;5259632;27;20023;-67
2024/04/18 08:20:10;;;;;;;11.30;2.50;;;12.60;100.00;;;;;;5260387;27;20010;-67
2024/04/18 08:22:37;;;;;;;4.13;1.98;;;13.00;100.00;;;;;;5253129;27;20018;-67
2024/04/18 08:25:06;;;;;;;5.95;2.05;;;13.30;100.00;;;;;;5258706;27;19999;-68
2024/04/18 08:27:33;;;;;;;9.38;2.35;;;13.00;100.00;;;;;;5254830;27;20057;-73
2024/04/18 08:30:02;;;;;;;8.90;1.65;;;13.20;100.00;;;;;;5267360;27;20002;-67
2024/04/18 08:32:29;;;;;;;6.88;2.13;;;13.90;100.00;;;;;;5262395;27;20762;-66
2024/04/18 08:34:56;;;;;;;6.00;2.00;;;13.50;100.00;;;;;;5258878;27;20336;-66
2024/04/18 08:37:23;;;;;;;3.38;1.50;;;13.50;100.00;;;;;;5244747;27;20452;-66
2024/04/18 08:39:49;;;;;;;4.72;1.80;;;13.60;100.00;;;;;;5227065;27;20678;-67
2024/04/18 08:42:22;;;;;;;3.72;2.10;;;13.70;94.80;;;;;;5262097;27;20003;-66
2024/04/18 08:44:55;;;;;;;5.55;1.50;;;13.40;91.40;;;;;;5248939;27;20026;-67
2024/04/18 08:47:24;;;;;;;3.90;1.70;;;14.30;88.80;;;;;;5218183;27;20017;-68
2024/04/18 08:49:54;;;;;;;4.07;1.75;;;14.40;82.60;;;;;;5261297;27;20011;-68
2024/04/18 08:52:21;;;;;;;2.67;1.45;;;14.40;78.70;;;;;;5271802;27;20006;-67
2024/04/18 08:54:48;;;;;;;4.95;1.48;;;14.50;80.30;;;;;;5258123;27;20025;-67
2024/04/18 08:57:21;;;;;;;3.35;1.40;;;14.80;77.90;;;;;;5253404;27;20136;-67
2024/04/18 08:59:56;;;;;;;2.75;1.65;;;14.80;73.80;;;;;;5229704;27;20054;-68
2024/04/18 09:02:25;;;;;;;3.75;1.52;;;14.90;62.00;;;;;;5251222;27;20021;-67
2024/04/18 09:04:52;;;;;;;2.72;1.70;;;14.00;64.60;;;;;;5239646;27;20006;-68
2024/04/18 09:07:19;;;;;;;4.78;1.55;;;14.40;67.00;;;;;;5228299;27;20018;-67
2024/04/18 09:09:46;;;;;;;9.43;2.95;;;14.30;66.00;;;;;;5250910;27;20022;-67
2024/04/18 09:12:13;;;;;;;6.32;1.67;;;14.80;69.70;;;;;;5251809;27;20026;-68
2024/04/18 09:14:40;;;;;;;2.85;1.40;;;15.20;52.90;;;;;;5250617;27;20015;-68
2024/04/18 09:17:14;;;;;;;2.25;1.83;;;14.50;51.90;;;;;;5267340;27;20006;-68
2024/04/18 09:19:41;;;;;;;4.03;2.40;;;13.90;55.10;;;;;;5244408;27;20082;-68
2024/04/18 09:22:08;;;;;;;5.60;2.22;;;14.30;55.20;;;;;;5251233;27;20618;-68
2024/04/18 09:24:37;;;;;;;4.10;2.05;;;14.40;51.80;;;;;;5258212;27;20010;-68
2024/04/18 09:27:04;;;;;;;2.58;1.55;;;14.50;51.20;;;;;;5234105;27;20062;-67
2024/04/18 09:29:31;;;;;;;4.85;2.55;;;13.80;51.00;;;;;;5256287;27;20514;-68
2024/04/18 09:31:59;;;;;;;3.92;1.98;;;13.60;53.70;;;;;;5257150;27;20007;-67
2024/04/18 09:34:29;;;;;;;3.47;1.33;;;14.10;53.00;;;;;;5259746;27;20361;-68
2024/04/18 09:37:02;;;;;;;3.33;1.90;;;14.20;48.20;;;;;;5255518;27;20467;-68
2024/04/18 09:39:30;;;;;;;2.35;1.60;;;13.30;50.30;;;;;;5228195;27;20901;-67
2024/04/18 09:42:10;;;;;;;1.40;1.10;;;13.40;50.60;;;;;;5267913;27;20434;-68
2024/04/18 09:44:49;;;;;;;1.85;1.33;;;13.10;50.50;;;;;;5261273;27;20061;-67
2024/04/18 09:47:17;;;;;;;1.95;1.20;;;12.50;53.60;;;;;;5260511;27;20022;-66
2024/04/18 09:49:44;;;;;;;2.55;1.30;;;12.40;53.80;;;;;;5258227;27;20006;-67
2024/04/18 09:52:13;;;;;;;3.10;2.00;;;12.40;55.80;;;;;;5222186;27;20526;-67
2024/04/18 09:54:40;;;;;;;1.90;1.42;;;12.70;57.60;;;;;;5250114;27;20046;-67
2024/04/18 09:57:09;;;;;;;3.88;1.80;;;13.00;52.30;;;;;;5253996;27;20013;-67
2024/04/18 09:59:38;;;;;;;3.83;2.22;;;13.00;53.70;;;;;;5257343;27;20002;-67
2024/04/18 10:02:12;;;;;;;15.35;6.80;;;13.40;51.90;;;;;;5273427;27;20016;-67
2024/04/18 10:04:39;;;;;;;14.68;5.80;;;12.80;51.50;;;;;;5231686;27;20558;-66
2024/04/18 10:07:11;;;;;;;3.92;2.00;;;12.10;51.70;;;;;;5250029;27;21019;-66
2024/04/18 10:09:39;;;;;;;4.38;1.90;;;11.90;52.60;;;;;;5255929;27;20010;-66
2024/04/18 10:12:08;;;;;;;4.15;1.98;;;11.70;54.10;;;;;;5259918;27;20011;-66
2024/04/18 10:14:38;;;;;;;3.10;1.42;;;11.70;55.20;;;;;;5254802;27;20007;-66
2024/04/18 10:17:07;;;;;;;3.25;1.30;;;11.70;56.10;;;;;;5258314;27;20002;-66
2024/04/18 10:19:34;;;;;;;3.50;1.60;;;13.00;55.30;;;;;;5257595;27;20013;-66
2024/04/18 10:22:01;;;;;;;2.95;1.13;;;13.90;50.90;;;;;;5263391;27;20017;-67
2024/04/18 10:24:51;;;;;;;2.75;1.25;;;14.90;51.80;;;;;;5252971;27;20014;-67
2024/04/18 10:27:20;;;;;;;4.57;1.67;;;15.80;47.50;;;;;;5257484;27;20832;-67
2024/04/18 10:29:57;;;;;;;3.83;1.63;;;16.40;49.50;;;;;;5263684;27;20006;-67
2024/04/18 10:32:29;;;;;;;1.98;0.98;;;16.90;45.70;;;;;;5264521;27;20010;-68
2024/04/18 10:34:58;;;;;;;1.75;1.20;;;17.90;43.80;;;;;;5258660;27;20024;-68
2024/04/18 10:37:25;;;;;;;2.58;1.10;;;17.20;47.50;;;;;;5246545;27;20169;-68
2024/04/18 10:39:53;;;;;;;29.15;4.60;;;17.80;44.10;;;;;;5225387;27;20006;-67
2024/04/18 10:42:21;;;;;;;1.67;1.35;;;17.40;42.10;;;;;;5264941;27;20006;-68
2024/04/18 10:44:49;;;;;;;3.00;1.85;;;16.20;43.60;;;;;;5260759;27;20006;-68
2024/04/18 10:47:20;;;;;;;2.50;1.45;;;15.60;46.80;;;;;;5260614;27;20018;-68
2024/04/18 10:49:47;;;;;;;14.27;2.78;;;16.30;48.20;;;;;;5236665;27;20016;-69
2024/04/18 10:52:16;;;;;;;2.78;2.08;;;16.50;46.00;;;;;;5266154;27;20018;-69
2024/04/18 10:54:43;;;;;;;1.77;1.50;;;16.30;46.60;;;;;;5265114;27;20014;-69
2024/04/18 10:57:10;;;;;;;3.40;1.40;;;16.40;43.40;;;;;;5238754;27;20002;-69
2024/04/18 10:59:38;;;;;;;4.50;1.27;;;16.20;45.50;;;;;;5266252;27;20002;-69
2024/04/18 11:02:06;;;;;;;3.05;1.20;;;15.60;44.60;;;;;;5261494;27;20728;-69
2024/04/18 11:04:34;;;;;;;1.38;1.08;;;15.30;47.20;;;;;;5260708;27;20011;-69
2024/04/18 11:07:01;;;;;;;4.53;1.20;;;15.30;46.90;;;;;;5255577;27;20671;-69
2024/04/18 11:09:28;;;;;;;9.70;1.15;;;15.30;45.40;;;;;;5253367;27;20014;-69
2024/04/18 11:11:55;;;;;;;2.20;1.30;;;15.10;45.30;;;;;;5269367;27;20010;-68
2024/04/18 11:14:23;;;;;;;4.63;1.30;;;14.90;46.70;;;;;;5256800;27;19998;-68
2024/04/18 11:17:00;;;;;;;1.77;1.17;;;15.50;49.10;;;;;;5263029;27;20828;-69
2024/04/18 11:19:29;;;;;;;3.30;1.00;;;16.30;44.20;;;;;;5261018;27;20550;-69
2024/04/18 11:21:59;;;;;;;5.35;2.60;;;17.30;45.60;;;;;;5260902;27;20010;-68
2024/04/18 11:24:27;;;;;;;1.58;1.10;;;17.80;43.10;;;;;;5259537;27;20620;-69
2024/04/18 11:26:54;;;;;;;3.03;1.05;;;17.40;42.80;;;;;;5265922;27;20038;-68
2024/04/18 11:29:27;;;;;;;10.23;1.20;;;17.80;42.30;;;;;;5261484;27;20065;-68
2024/04/18 11:32:05;;;;;;;2.15;1.10;;;17.80;43.60;;;;;;5231770;27;20017;-68
2024/04/18 11:34:32;;;;;;;0.90;0.82;;;17.20;43.00;;;;;;5243267;27;20011;-68
2024/04/18 11:37:03;;;;;;;2.92;1.20;;;17.60;44.80;;;;;;5243152;27;20011;-68
2024/04/18 11:39:30;;;;;;;1.08;0.77;;;18.30;42.80;;;;;;5216540;27;19999;-69
2024/04/18 11:41:57;;;;;;;5.10;1.00;;;18.10;41.60;;;;;;5247225;27;20772;-69
2024/04/18 11:44:24;;;;;;;3.92;1.00;;;17.00;43.20;;;;;;5252919;27;20025;-69
2024/04/18 11:46:53;;;;;;;2.55;1.10;;;16.70;42.50;;;;;;5238636;27;20003;-69
2024/04/18 11:49:20;;;;;;;3.42;0.95;;;17.00;43.30;;;;;;5258090;27;20022;-68
2024/04/18 11:51:47;;;;;;;2.63;1.00;;;16.50;43.20;;;;;;5260443;27;20017;-68
2024/04/18 11:54:14;;;;;;;23.02;3.50;;;17.80;43.40;;;;;;5259513;27;20014;-70
2024/04/18 11:56:41;;;;;;;6.38;1.27;;;18.30;39.80;;;;;;5264226;27;20062;-68
2024/04/18 11:59:08;;;;;;;5.78;1.70;;;18.30;38.70;;;;;;5249812;27;21063;-68
2024/04/18 12:01:35;;;;;;;3.03;0.73;;;17.40;40.60;;;;;;5257670;27;20024;-69
2024/04/18 12:04:02;;;;;;;2.05;0.80;;;17.00;41.70;;;;;;5265314;27;20021;-70
2024/04/18 12:06:29;;;;;;;67.18;11.05;;;17.50;45.70;;;;;;5265374;27;20002;-71
2024/04/18 12:08:56;;;;;;;4.63;1.00;;;18.10;41.30;;;;;;5257133;27;20327;-68
2024/04/18 12:11:23;;;;;;;3.78;1.45;;;17.90;40.50;;;;;;5256909;27;20086;-68
2024/04/18 12:13:50;;;;;;;3.92;1.00;;;17.40;40.40;;;;;;5226269;27;21114;-67
2024/04/18 12:16:17;;;;;;;2.85;0.90;;;17.00;44.00;;;;;;5261697;27;20081;-69
2024/04/18 12:18:44;;;;;;;1.58;0.75;;;16.80;41.60;;;;;;5248073;27;20019;-68
2024/04/18 12:21:11;;;;;;;0.98;0.60;;;16.60;40.50;;;;;;5233456;27;20504;-69
2024/04/18 12:23:42;;;;;;;3.28;0.85;;;16.20;42.80;;;;;;5255236;27;20686;-68
2024/04/18 12:26:10;;;;;;;1.83;0.77;;;16.20;42.20;;;;;;5254008;27;20076;-69
2024/04/18 12:28:37;;;;;;;2.55;0.57;;;15.80;42.00;;;;;;5285967;21;20037;-69
2024/04/18 12:31:04;;;;;;;3.75;0.98;;;15.60;42.30;;;;;;5295003;26;20009;-69
2024/04/18 12:33:31;;;;;;;2.70;1.27;;;15.30;45.20;;;;;;5304498;26;20105;-70
2024/04/18 12:35:58;;;;;;;1.75;0.70;;;14.80;45.10;;;;;;5297839;27;19998;-69
2024/04/18 12:38:25;;;;;;;6.43;1.00;;;14.50;46.50;;;;;;5289189;26;20002;-69
2024/04/18 12:40:52;;;;;;;1.35;0.80;;;14.40;46.70;;;;;;5307411;26;20001;-70
2024/04/18 12:43:19;;;;;;;2.22;0.90;;;14.00;47.50;;;;;;5303261;26;20006;-72
2024/04/18 12:45:46;;;;;;;3.33;1.00;;;13.80;46.70;;;;;;5281720;27;20048;-69
2024/04/18 12:48:13;;;;;;;1.80;0.60;;;13.60;48.80;;;;;;5303104;26;20005;-70
2024/04/18 12:50:40;;;;;;;10.45;1.00;;;13.60;46.10;;;;;;5309375;26;20021;-70
2024/04/18 12:53:07;;;;;;;3.88;0.88;;;13.60;47.70;;;;;;5312280;26;20030;-69
2024/04/18 12:55:35;;;;;;;1.17;0.90;;;13.70;47.30;;;;;;5311014;26;20579;-70